createdAt,value
2018-05-26T00:01:38.740Z,99.90
2018-05-26T00:04:04.979Z,99.90
2018-05-26T00:06:31.975Z,99.90
2018-05-26T00:08:58.189Z,99.90
2018-05-26T00:11:24.389Z,99.90
2018-05-26T00:13:50.619Z,99.90
2018-05-26T00:16:16.781Z,99.90
2018-05-26T00:18:42.967Z,99.90
2018-05-26T00:21:09.923Z,99.90
2018-05-26T00:23:36.854Z,99.90
2018-05-26T00:26:03.053Z,99.90
2018-05-26T00:28:29.258Z,99.90
2018-05-26T00:30:56.234Z,99.90
2018-05-26T00:33:22.454Z,99.90
2018-05-26T00:35:48.637Z,99.90
2018-05-26T00:38:14.866Z,99.90
2018-05-26T00:40:41.077Z,99.90
2018-05-26T00:43:07.267Z,99.90
2018-05-26T00:45:33.543Z,99.90
2018-05-26T00:47:59.727Z,99.90
2018-05-26T00:50:25.959Z,99.90
2018-05-26T00:52:52.230Z,99.90
2018-05-26T00:55:19.212Z,99.90
2018-05-26T00:57:46.203Z,99.90
2018-05-26T01:00:12.414Z,99.90
2018-05-26T01:02:39.398Z,99.90
2018-05-26T01:05:05.624Z,99.90
2018-05-26T01:07:31.852Z,99.90
2018-05-26T01:09:58.799Z,99.90
2018-05-26T01:12:25.050Z,99.90
2018-05-26T01:14:51.252Z,99.90
2018-05-26T01:17:17.449Z,99.90
2018-05-26T01:19:43.723Z,99.90
2018-05-26T01:22:09.984Z,99.90
2018-05-26T01:24:36.959Z,99.90
2018-05-26T01:27:03.195Z,99.90
2018-05-26T01:29:29.405Z,99.90
2018-05-26T01:31:55.598Z,99.90
2018-05-26T01:34:21.802Z,99.90
2018-05-26T01:36:48.019Z,99.90
2018-05-26T01:39:14.284Z,99.90
2018-05-26T01:41:40.469Z,99.90
2018-05-26T01:44:06.706Z,99.90
2018-05-26T01:46:32.892Z,99.90
2018-05-26T01:48:59.051Z,99.90
2018-05-26T01:51:26.012Z,99.90
2018-05-26T01:53:52.213Z,99.90
2018-05-26T01:56:18.415Z,99.90
2018-05-26T01:58:44.603Z,99.90
2018-05-26T02:01:10.855Z,99.90
2018-05-26T02:03:37.111Z,99.90
2018-05-26T02:06:03.320Z,99.90
2018-05-26T02:08:30.318Z,99.90
2018-05-26T02:10:56.495Z,99.90
2018-05-26T02:13:22.717Z,99.90
2018-05-26T02:15:48.973Z,99.90
2018-05-26T02:18:15.198Z,99.90
2018-05-26T02:20:41.423Z,99.90
2018-05-26T02:23:07.622Z,99.90
2018-05-26T02:25:33.859Z,99.90
2018-05-26T02:28:00.079Z,99.90
2018-05-26T02:30:26.346Z,99.90
2018-05-26T02:32:52.544Z,99.90
2018-05-26T02:35:18.760Z,99.90
2018-05-26T02:37:44.946Z,99.90
2018-05-26T02:40:11.165Z,99.90
2018-05-26T02:42:37.420Z,99.90
2018-05-26T02:45:03.703Z,99.90
2018-05-26T02:47:30.911Z,99.90
2018-05-26T02:49:57.115Z,99.90
2018-05-26T02:52:23.301Z,99.90
2018-05-26T02:54:49.478Z,99.90
2018-05-26T02:57:15.681Z,99.90
2018-05-26T02:59:41.900Z,99.90
2018-05-26T03:02:08.136Z,99.90
2018-05-26T03:04:40.428Z,99.90
2018-05-26T03:07:12.717Z,99.90
2018-05-26T03:09:45.112Z,99.90
2018-05-26T03:12:17.434Z,99.90
2018-05-26T03:14:46.253Z,99.90
2018-05-26T03:17:19.334Z,99.90
2018-05-26T03:19:46.324Z,99.90
2018-05-26T03:22:12.614Z,99.90
2018-05-26T03:24:38.791Z,99.90
2018-05-26T03:27:04.996Z,99.90
2018-05-26T03:29:31.194Z,99.90
2018-05-26T03:31:57.452Z,99.90
2018-05-26T03:34:23.686Z,99.90
2018-05-26T03:36:49.909Z,99.90
2018-05-26T03:39:16.102Z,99.90
2018-05-26T03:41:48.370Z,99.90
2018-05-26T03:44:14.571Z,99.90
2018-05-26T03:46:40.754Z,99.90
2018-05-26T03:49:06.962Z,99.90
2018-05-26T03:51:33.160Z,99.90
2018-05-26T03:54:00.097Z,99.90
2018-05-26T03:56:44.731Z,99.90
2018-05-26T03:59:17.620Z,99.90
2018-05-26T04:01:43.843Z,99.90
2018-05-26T04:04:10.061Z,99.90
2018-05-26T04:06:36.274Z,99.90
2018-05-26T04:09:02.489Z,99.90
2018-05-26T04:11:28.747Z,99.90
2018-05-26T04:13:54.939Z,99.90
2018-05-26T04:16:23.982Z,99.90
2018-05-26T04:18:50.182Z,99.90
2018-05-26T04:21:16.442Z,99.90
2018-05-26T04:23:42.669Z,99.90
2018-05-26T04:26:08.902Z,99.90
2018-05-26T04:28:35.173Z,99.90
2018-05-26T04:31:01.351Z,99.90
2018-05-26T04:33:28.394Z,99.90
2018-05-26T04:35:54.594Z,99.90
2018-05-26T04:38:20.824Z,99.90
2018-05-26T04:40:47.025Z,99.90
2018-05-26T04:43:19.284Z,99.90
2018-05-26T04:45:45.526Z,99.90
2018-05-26T04:48:11.714Z,99.90
2018-05-26T04:50:38.727Z,99.90
2018-05-26T04:53:05.103Z,99.90
2018-05-26T04:55:32.144Z,99.90
2018-05-26T04:57:58.379Z,99.90
2018-05-26T05:00:24.637Z,99.90
2018-05-26T05:02:50.883Z,99.90
2018-05-26T05:05:17.126Z,99.90
2018-05-26T05:07:50.001Z,99.90
2018-05-26T05:10:16.986Z,99.90
2018-05-26T05:12:43.931Z,99.90
2018-05-26T05:15:10.157Z,99.90
2018-05-26T05:17:37.226Z,99.90
2018-05-26T05:20:15.194Z,99.90
2018-05-26T05:22:41.417Z,99.90
2018-05-26T05:25:07.688Z,99.90
2018-05-26T05:27:33.889Z,99.90
2018-05-26T05:30:00.444Z,99.90
2018-05-26T05:32:29.663Z,99.90
2018-05-26T05:34:56.232Z,99.90
2018-05-26T05:37:22.458Z,99.90
2018-05-26T05:39:48.743Z,99.90
2018-05-26T05:42:14.933Z,99.90
2018-05-26T05:44:41.226Z,99.90
2018-05-26T05:47:07.405Z,99.90
2018-05-26T05:49:33.630Z,99.90
2018-05-26T05:51:59.842Z,99.90
2018-05-26T05:54:26.053Z,99.90
2018-05-26T05:56:52.240Z,99.90
2018-05-26T05:59:18.481Z,99.90
2018-05-26T06:01:44.771Z,99.90
2018-05-26T06:04:10.993Z,99.90
2018-05-26T06:06:37.207Z,99.90
2018-05-26T06:09:04.205Z,99.90
2018-05-26T06:11:30.429Z,99.90
2018-05-26T06:13:56.654Z,99.90
2018-05-26T06:16:23.581Z,99.90
2018-05-26T06:18:50.148Z,99.90
2018-05-26T06:21:16.430Z,99.90
2018-05-26T06:23:48.555Z,99.90
2018-05-26T06:26:14.716Z,99.90
2018-05-26T06:28:40.933Z,99.90
2018-05-26T06:31:07.231Z,99.90
2018-05-26T06:33:33.445Z,99.90
2018-05-26T06:35:59.685Z,99.90
2018-05-26T06:38:25.823Z,99.90
2018-05-26T06:40:52.774Z,99.90
2018-05-26T06:43:18.992Z,99.90
2018-05-26T06:45:45.955Z,99.90
2018-05-26T06:48:12.221Z,99.90
2018-05-26T06:50:38.458Z,99.90
2018-05-26T06:53:04.698Z,99.90
2018-05-26T06:55:30.883Z,99.90
2018-05-26T06:57:57.081Z,99.90
2018-05-26T07:00:23.311Z,99.90
2018-05-26T07:02:49.493Z,99.90
2018-05-26T07:05:15.683Z,99.90
2018-05-26T07:07:41.948Z,99.90
2018-05-26T07:10:08.185Z,99.90
2018-05-26T07:12:34.395Z,99.90
2018-05-26T07:15:01.334Z,99.90
2018-05-26T07:17:27.595Z,99.90
2018-05-26T07:19:54.558Z,99.90
2018-05-26T07:22:20.782Z,99.90
2018-05-26T07:24:46.992Z,99.90
2018-05-26T07:27:13.166Z,99.90
2018-05-26T07:29:39.374Z,99.90
2018-05-26T07:32:05.570Z,99.90
2018-05-26T07:34:32.494Z,99.90
2018-05-26T07:36:58.670Z,99.90
2018-05-26T07:39:24.865Z,99.90
2018-05-26T07:41:51.100Z,99.90
2018-05-26T07:44:18.096Z,99.90
2018-05-26T07:46:44.278Z,99.90
2018-05-26T07:49:10.475Z,99.90
2018-05-26T07:51:37.458Z,99.90
2018-05-26T07:54:03.647Z,99.90
2018-05-26T07:56:29.870Z,99.90
2018-05-26T07:58:56.081Z,99.90
2018-05-26T08:01:22.278Z,99.90
2018-05-26T08:03:48.464Z,99.90
2018-05-26T08:06:14.675Z,99.90
2018-05-26T08:08:40.902Z,99.90
2018-05-26T08:11:07.799Z,99.90
2018-05-26T08:13:33.965Z,99.90
2018-05-26T08:16:00.943Z,99.90
2018-05-26T08:18:27.965Z,99.90
2018-05-26T08:20:54.181Z,99.90
2018-05-26T08:23:20.405Z,99.90
2018-05-26T08:25:46.585Z,99.90
2018-05-26T08:28:12.777Z,99.90
2018-05-26T08:30:39.707Z,99.90
2018-05-26T08:33:05.959Z,99.90
2018-05-26T08:35:32.935Z,99.90
2018-05-26T08:37:59.173Z,99.90
2018-05-26T08:40:25.386Z,99.90
2018-05-26T08:42:52.293Z,99.90
2018-05-26T08:45:19.321Z,99.90
2018-05-26T08:47:46.264Z,99.90
2018-05-26T08:50:12.490Z,99.90
2018-05-26T08:52:38.730Z,99.90
2018-05-26T08:55:05.720Z,99.90
2018-05-26T08:57:31.907Z,99.90
2018-05-26T08:59:58.142Z,99.90
2018-05-26T09:02:24.373Z,99.90
2018-05-26T09:04:50.545Z,99.90
2018-05-26T09:07:16.823Z,99.90
2018-05-26T09:09:43.050Z,99.90
2018-05-26T09:12:09.283Z,99.90
2018-05-26T09:14:37.280Z,99.90
2018-05-26T09:17:04.196Z,99.90
2018-05-26T09:19:31.182Z,99.90
2018-05-26T09:21:58.171Z,99.90
2018-05-26T09:24:24.344Z,99.90
2018-05-26T09:26:50.585Z,99.90
2018-05-26T09:29:16.766Z,99.90
2018-05-26T09:31:43.041Z,99.90
2018-05-26T09:34:09.259Z,99.90
2018-05-26T09:36:35.520Z,99.90
2018-05-26T09:39:01.748Z,99.90
2018-05-26T09:41:27.962Z,99.90
2018-05-26T09:43:54.862Z,99.90
2018-05-26T09:46:21.066Z,99.90
2018-05-26T09:48:47.290Z,99.90
2018-05-26T09:51:14.202Z,99.90
2018-05-26T09:53:40.441Z,99.90
2018-05-26T09:56:06.738Z,99.90
2018-05-26T09:58:32.834Z,99.90
2018-05-26T10:00:59.025Z,99.90
2018-05-26T10:03:25.240Z,99.90
2018-05-26T10:05:52.153Z,99.90
2018-05-26T10:08:18.374Z,99.90
2018-05-26T10:10:44.551Z,99.90
2018-05-26T10:13:10.747Z,99.90
2018-05-26T10:15:36.985Z,99.90
2018-05-26T10:18:03.199Z,99.90
2018-05-26T10:20:30.117Z,99.90
2018-05-26T10:22:56.285Z,99.90
2018-05-26T10:25:23.502Z,99.90
2018-05-26T10:27:49.677Z,99.90
2018-05-26T10:30:16.638Z,99.90
2018-05-26T10:32:42.838Z,99.90
2018-05-26T10:35:09.046Z,99.90
2018-05-26T10:37:35.262Z,99.90
2018-05-26T10:40:02.300Z,99.90
2018-05-26T10:42:28.557Z,99.90
2018-05-26T10:44:55.531Z,99.90
2018-05-26T10:47:21.824Z,99.90
2018-05-26T10:49:48.044Z,99.90
2018-05-26T10:52:17.300Z,99.90
2018-05-26T10:54:43.508Z,99.90
2018-05-26T10:57:11.451Z,99.90
2018-05-26T10:59:37.691Z,99.90
2018-05-26T11:02:04.618Z,99.90
2018-05-26T11:04:30.839Z,99.90
2018-05-26T11:06:57.842Z,99.90
2018-05-26T11:09:24.115Z,99.90
2018-05-26T11:11:50.379Z,99.90
2018-05-26T11:14:23.960Z,99.90
2018-05-26T11:16:50.184Z,99.90
2018-05-26T11:19:16.405Z,99.90
2018-05-26T11:21:42.731Z,99.90
2018-05-26T11:24:09.118Z,99.90
2018-05-26T11:26:35.246Z,99.90
2018-05-26T11:29:01.446Z,99.90
2018-05-26T11:31:27.646Z,99.90
2018-05-26T11:33:53.886Z,99.90
2018-05-26T11:36:20.042Z,99.90
2018-05-26T11:38:46.290Z,99.90
2018-05-26T11:41:12.491Z,99.90
2018-05-26T11:43:38.728Z,99.90
2018-05-26T11:46:05.707Z,99.90
2018-05-26T11:48:32.010Z,99.90
2018-05-26T11:50:58.266Z,99.90
2018-05-26T11:53:24.450Z,99.90
2018-05-26T11:55:50.679Z,99.90
2018-05-26T11:58:16.889Z,99.90
2018-05-26T12:00:49.420Z,99.90
2018-05-26T12:03:15.790Z,99.90
2018-05-26T12:05:42.082Z,99.90
2018-05-26T12:08:08.283Z,99.90
2018-05-26T12:10:35.288Z,99.90
2018-05-26T12:13:01.503Z,99.90
2018-05-26T12:15:27.740Z,99.90
2018-05-26T12:17:53.962Z,99.90
2018-05-26T12:20:33.153Z,99.90
2018-05-26T12:22:59.406Z,99.90
2018-05-26T12:25:25.700Z,99.90
2018-05-26T12:27:51.863Z,99.90
2018-05-26T12:30:18.055Z,99.90
2018-05-26T12:32:44.971Z,99.90
2018-05-26T12:35:11.162Z,99.90
2018-05-26T12:37:41.263Z,99.90
2018-05-26T12:40:07.527Z,99.90
2018-05-26T12:42:33.718Z,99.90
2018-05-26T12:45:00.737Z,99.90
2018-05-26T12:47:26.946Z,99.90
2018-05-26T12:49:53.882Z,99.90
2018-05-26T12:52:20.041Z,99.90
2018-05-26T12:54:46.989Z,99.90
2018-05-26T12:57:13.186Z,99.90
2018-05-26T12:59:39.391Z,99.90
2018-05-26T13:02:11.705Z,99.90
2018-05-26T13:04:37.941Z,99.90
2018-05-26T13:07:04.179Z,99.90
2018-05-26T13:09:30.439Z,99.90
2018-05-26T13:11:56.704Z,99.90
2018-05-26T13:14:22.909Z,99.70
2018-05-26T13:16:49.980Z,99.30
2018-05-26T13:19:16.251Z,99.30
2018-05-26T13:21:43.205Z,98.90
2018-05-26T13:24:09.398Z,98.80
2018-05-26T13:26:35.645Z,98.70
2018-05-26T13:29:01.977Z,98.80
2018-05-26T13:31:28.399Z,98.50
2018-05-26T13:33:54.638Z,99.00
2018-05-26T13:36:21.582Z,99.00
2018-05-26T13:38:48.558Z,98.30
2018-05-26T13:41:15.476Z,97.70
2018-05-26T13:43:41.688Z,97.60
2018-05-26T13:46:07.866Z,97.20
2018-05-26T13:48:34.323Z,97.10
2018-05-26T13:51:00.874Z,96.30
2018-05-26T13:53:27.897Z,95.90
2018-05-26T13:55:54.116Z,95.90
2018-05-26T13:58:20.310Z,96.20
2018-05-26T14:00:46.517Z,95.80
2018-05-26T14:03:17.788Z,95.60
2018-05-26T14:05:44.076Z,95.20
2018-05-26T14:08:10.285Z,94.80
2018-05-26T14:10:37.254Z,93.70
2018-05-26T14:13:03.529Z,93.70
2018-05-26T14:15:29.763Z,93.20
2018-05-26T14:17:55.954Z,91.70
2018-05-26T14:20:22.170Z,90.50
2018-05-26T14:22:48.455Z,90.10
2018-05-26T14:25:14.667Z,88.30
2018-05-26T14:27:40.874Z,88.20
2018-05-26T14:30:07.095Z,85.30
2018-05-26T14:32:33.331Z,83.10
2018-05-26T14:34:59.586Z,81.10
2018-05-26T14:37:25.788Z,78.90
2018-05-26T14:39:52.018Z,76.60
2018-05-26T14:42:18.267Z,74.90
2018-05-26T14:44:45.223Z,70.70
2018-05-26T14:47:12.226Z,71.30
2018-05-26T14:49:38.402Z,71.20
2018-05-26T14:52:04.569Z,70.00
2018-05-26T14:54:36.523Z,67.50
2018-05-26T14:57:03.490Z,66.90
2018-05-26T14:59:29.825Z,66.80
2018-05-26T15:01:56.039Z,66.30
2018-05-26T15:04:22.297Z,66.30
2018-05-26T15:06:49.237Z,65.20
2018-05-26T15:09:15.616Z,65.20
2018-05-26T15:11:41.857Z,65.00
2018-05-26T15:14:08.825Z,64.20
2018-05-26T15:16:35.018Z,64.10
2018-05-26T15:19:02.055Z,63.20
2018-05-26T15:21:28.292Z,63.10
2018-05-26T15:23:54.605Z,64.00
2018-05-26T15:26:20.919Z,64.60
2018-05-26T15:28:47.221Z,64.40
2018-05-26T15:31:13.457Z,65.00
2018-05-26T15:33:39.670Z,64.70
2018-05-26T15:36:06.661Z,66.20
2018-05-26T15:38:32.917Z,66.20
2018-05-26T15:41:00.194Z,66.20
2018-05-26T15:43:26.499Z,66.20
2018-05-26T15:45:59.691Z,66.30
2018-05-26T15:48:32.718Z,65.50
2018-05-26T15:50:58.942Z,65.50
2018-05-26T15:53:25.189Z,65.80
2018-05-26T15:55:51.385Z,66.50
2018-05-26T15:58:18.411Z,68.40
2018-05-26T16:00:44.748Z,67.60
2018-05-26T16:03:10.984Z,66.90
2018-05-26T16:05:37.196Z,67.60
2018-05-26T16:08:03.537Z,68.10
2018-05-26T16:10:29.716Z,68.70
2018-05-26T16:12:56.030Z,69.10
2018-05-26T16:15:22.260Z,69.40
2018-05-26T16:17:48.518Z,71.20
2018-05-26T16:20:14.749Z,71.10
2018-05-26T16:22:40.973Z,71.00
2018-05-26T16:25:07.151Z,71.10
2018-05-26T16:27:33.374Z,71.00
2018-05-26T16:29:59.570Z,71.80
2018-05-26T16:32:25.814Z,72.30
2018-05-26T16:34:52.042Z,72.80
2018-05-26T16:37:22.200Z,72.60
2018-05-26T16:39:48.399Z,72.60
2018-05-26T16:42:14.590Z,72.80
2018-05-26T16:44:40.879Z,73.10
2018-05-26T16:47:07.099Z,73.20
2018-05-26T16:49:33.333Z,72.80
2018-05-26T16:51:59.558Z,73.20
2018-05-26T16:54:25.750Z,73.20
2018-05-26T16:56:51.915Z,72.70
2018-05-26T16:59:18.220Z,73.30
2018-05-26T17:01:44.421Z,74.40
2018-05-26T17:04:10.649Z,74.80
2018-05-26T17:06:36.922Z,75.10
2018-05-26T17:09:03.159Z,75.60
2018-05-26T17:11:29.401Z,76.10
2018-05-26T17:13:55.625Z,76.40
2018-05-26T17:16:21.821Z,76.80
2018-05-26T17:18:48.090Z,77.40
2018-05-26T17:21:14.338Z,77.00
2018-05-26T17:23:40.578Z,76.40
2018-05-26T17:26:12.881Z,77.10
2018-05-26T17:28:39.091Z,77.80
2018-05-26T17:31:05.269Z,78.20
2018-05-26T17:33:31.510Z,78.70
2018-05-26T17:35:57.699Z,79.30
2018-05-26T17:38:23.942Z,79.60
2018-05-26T17:40:50.277Z,80.20
2018-05-26T17:43:17.256Z,80.70
2018-05-26T17:45:44.230Z,81.00
2018-05-26T17:48:10.445Z,81.10
2018-05-26T17:50:36.671Z,81.40
2018-05-26T17:53:03.632Z,82.60
2018-05-26T17:55:30.655Z,83.20
2018-05-26T17:57:56.952Z,83.20
2018-05-26T18:00:23.175Z,83.50
2018-05-26T18:02:49.595Z,83.70
2018-05-26T18:05:16.541Z,83.60
2018-05-26T18:07:43.834Z,83.90
2018-05-26T18:10:10.096Z,84.00
2018-05-26T18:12:37.085Z,84.20
2018-05-26T18:15:03.680Z,84.10
2018-05-26T18:17:29.928Z,84.00
2018-05-26T18:19:56.253Z,84.20
2018-05-26T18:22:23.322Z,84.20
2018-05-26T18:24:49.720Z,84.10
2018-05-26T18:27:15.995Z,84.60
2018-05-26T18:29:42.325Z,85.00
2018-05-26T18:32:08.525Z,85.60
2018-05-26T18:34:34.759Z,86.30
2018-05-26T18:37:00.963Z,87.30
2018-05-26T18:39:27.191Z,87.60
2018-05-26T18:41:54.382Z,88.90
2018-05-26T18:44:20.613Z,88.90
2018-05-26T18:46:46.861Z,89.50
2018-05-26T18:49:13.162Z,89.20
2018-05-26T18:51:39.347Z,88.60
2018-05-26T18:54:05.568Z,88.10
2018-05-26T18:56:31.802Z,87.10
2018-05-26T18:58:58.059Z,86.60
2018-05-26T19:01:24.387Z,86.60
2018-05-26T19:03:56.587Z,87.20
2018-05-26T19:06:22.868Z,87.50
2018-05-26T19:08:49.223Z,87.80
2018-05-26T19:11:20.518Z,87.80
2018-05-26T19:13:47.537Z,88.50
2018-05-26T19:16:13.750Z,88.40
2018-05-26T19:18:40.099Z,89.10
2018-05-26T19:21:06.436Z,89.70
2018-05-26T19:23:32.675Z,89.80
2018-05-26T19:25:58.945Z,89.50
2018-05-26T19:28:25.384Z,90.00
2018-05-26T19:30:51.710Z,90.00
2018-05-26T19:33:17.914Z,90.40
2018-05-26T19:35:44.170Z,90.20
2018-05-26T19:38:10.388Z,90.20
2018-05-26T19:40:36.688Z,90.60
2018-05-26T19:43:09.671Z,90.60
2018-05-26T19:45:42.021Z,90.60
2018-05-26T19:48:14.374Z,90.60
2018-05-26T19:50:46.765Z,90.60
2018-05-26T19:53:19.710Z,90.80
2018-05-26T19:55:45.952Z,90.80
2018-05-26T19:58:12.332Z,90.80
2018-05-26T20:00:38.638Z,90.60
2018-05-26T20:03:04.934Z,90.60
2018-05-26T20:05:32.818Z,90.40
2018-05-26T20:07:59.047Z,90.40
2018-05-26T20:10:25.297Z,90.30
2018-05-26T20:12:57.204Z,90.40
2018-05-26T20:15:24.224Z,90.30
2018-05-26T20:17:50.547Z,90.30
2018-05-26T20:20:16.759Z,90.40
2018-05-26T20:22:43.020Z,90.20
2018-05-26T20:25:09.243Z,90.20
2018-05-26T20:27:35.575Z,90.70
2018-05-26T20:30:02.043Z,90.40
2018-05-26T20:32:29.111Z,90.50
2018-05-26T20:34:55.433Z,90.50
2018-05-26T20:37:22.433Z,90.60
2018-05-26T20:39:54.785Z,90.60
2018-05-26T20:42:21.757Z,91.00
2018-05-26T20:44:47.976Z,90.70
2018-05-26T20:47:20.363Z,90.60
2018-05-26T20:49:46.968Z,90.60
2018-05-26T20:52:13.234Z,90.70
2018-05-26T20:54:39.490Z,90.70
2018-05-26T20:57:05.860Z,90.80
2018-05-26T20:59:32.403Z,90.90
2018-05-26T21:01:58.666Z,90.90
2018-05-26T21:04:24.963Z,90.80
2018-05-26T21:06:51.204Z,90.90
2018-05-26T21:09:17.475Z,90.90
2018-05-26T21:11:43.896Z,91.00
2018-05-26T21:14:10.874Z,91.10
2018-05-26T21:16:37.106Z,91.10
2018-05-26T21:19:03.363Z,91.20
2018-05-26T21:21:31.391Z,91.20
2018-05-26T21:23:57.632Z,91.20
2018-05-26T21:26:23.858Z,91.30
2018-05-26T21:28:50.075Z,91.10
2018-05-26T21:31:16.346Z,91.30
2018-05-26T21:33:42.606Z,91.30
2018-05-26T21:36:08.840Z,91.40
2018-05-26T21:38:37.045Z,91.40
2018-05-26T21:41:04.034Z,91.40
2018-05-26T21:43:30.496Z,91.50
2018-05-26T21:45:57.515Z,91.60
2018-05-26T21:48:23.758Z,91.50
2018-05-26T21:50:50.743Z,91.80
2018-05-26T21:53:16.981Z,91.70
2018-05-26T21:55:43.263Z,91.90
2018-05-26T21:58:09.491Z,91.90
2018-05-26T22:00:35.738Z,92.00
2018-05-26T22:03:02.038Z,92.00
2018-05-26T22:05:28.351Z,92.00
2018-05-26T22:07:54.574Z,92.10
2018-05-26T22:10:20.831Z,92.20
2018-05-26T22:12:47.078Z,92.20
2018-05-26T22:15:13.270Z,92.40
2018-05-26T22:17:39.530Z,92.40
2018-05-26T22:20:05.824Z,92.50
2018-05-26T22:22:32.754Z,92.70
2018-05-26T22:24:59.006Z,92.70
2018-05-26T22:27:25.948Z,92.60
2018-05-26T22:29:52.183Z,92.60
2018-05-26T22:32:18.423Z,92.40
2018-05-26T22:34:44.650Z,92.50
2018-05-26T22:37:10.874Z,92.60
2018-05-26T22:39:37.116Z,92.70
2018-05-26T22:42:03.393Z,92.80
2018-05-26T22:44:29.655Z,92.90
2018-05-26T22:46:55.874Z,92.90
2018-05-26T22:49:22.196Z,93.10
2018-05-26T22:51:48.466Z,93.10
2018-05-26T22:54:14.719Z,93.20
2018-05-26T22:56:41.714Z,93.30
2018-05-26T22:59:08.040Z,93.30
2018-05-26T23:01:39.354Z,93.20
2018-05-26T23:04:05.618Z,93.20
2018-05-26T23:06:32.566Z,93.40
2018-05-26T23:08:59.543Z,93.40
2018-05-26T23:11:25.848Z,93.40
2018-05-26T23:13:52.126Z,93.40
2018-05-26T23:16:18.358Z,93.60
2018-05-26T23:18:44.646Z,93.70
2018-05-26T23:21:10.875Z,93.70
2018-05-26T23:23:37.116Z,93.80
2018-05-26T23:26:03.376Z,93.80
2018-05-26T23:28:29.632Z,94.00
2018-05-26T23:30:56.684Z,94.00
2018-05-26T23:33:22.906Z,94.00
2018-05-26T23:35:49.925Z,94.10
2018-05-26T23:38:16.218Z,94.10
2018-05-26T23:40:43.199Z,94.20
2018-05-26T23:43:10.203Z,94.10
2018-05-26T23:45:36.466Z,94.10
2018-05-26T23:48:02.751Z,94.10
2018-05-26T23:50:29.053Z,94.30
2018-05-26T23:52:55.307Z,94.30
2018-05-26T23:55:21.517Z,94.20
2018-05-26T23:57:47.753Z,94.40
